Clayton Center, Iowa
Current Conditions -  °F | °C
As of 8:15 AM on Thursday 29 Jan 2015 (Local Time) from KPDC Reporting Station
Overcast Overcast  
Wind Chill: 25°   Ceiling: 1600
Heat Index: 34°   Visibility: 10mi
Dew Point: 28°   Wind: 13mph
Humidity: 81%   Direction: 310°NW
Pressure: 29.99"   Gusts: 17mph
Location:  42.8388°N, 91.4421°W
Report Text: KPDC 291415Z AUTO 31011G15KT 10SM OVC016 01/M02 A2999 RMK AO2 T00101020
Loading
Personal Weather Stations






























Interactive Weather Map New forecast layout! Learn more

10-Day Weather Forecast

Advertisements
Track Severe Weather on mobile